Custom Search

Airport METAR Reports

 

YMAV - Avalon Airport, Australia
Distance from station: 0 0km
Updated: 25/06/2017 18:30
Light rain, Showers, Overcast
Light rain, Showers, Overcast
 Wind from W
Wind: W 26 km/h
Temperature: 11°C
Dew Point: 9°C
Humidity: 88%
Barometer: 1016 hPa
Summary: Light rain, Showers
Clouds: Overcast
Visibility: 10 km
Cloud details: Mostly cloudy 884 m
Overcast 1311 m
2017/06/25 08:30 YMAV 250830Z AUTO 28014KT 9999 -SHRA BKN029 OVC043 11/09 Q1016
YMML - Melbourne Intl A, Australia
Distance from station: NE 50km
Updated: 25/06/2017 18:30
Mostly cloudy
Mostly cloudy
 Wind from NNW
Wind: NNW 15 km/h
Temperature: 11°C
Dew Point: 5°C
Humidity: 67%
Barometer: 1016 hPa
Clouds: Mostly cloudy
Visibility: 10 km
Cloud details: Mostly cloudy 1463 m
Mostly cloudy 1676 m
2017/06/25 08:30 YMML 250830Z 34008KT 9999 BKN048 BKN055 11/05 Q1016 INTER 0900/1130 6000 SHRA BKN020
YMEN - Melbourne/Essend, Australia
Distance from station: NE 51km
Updated: 25/06/2017 18:00
Overcast
Overcast
 Wind from NNW
Wind: NNW 15 km/h
Temperature: 12°C
Dew Point: 6°C
Humidity: 67%
Barometer: 1015 hPa
Clouds: Overcast
Visibility: 10 km
Cloud details: Mostly cloudy 1524 m
Mostly cloudy 1829 m
Overcast 2225 m
2017/06/25 08:00 YMEN 250800Z AUTO 34008KT 9999 // BKN050 BKN060 OVC073 12/06 Q1015
 
YWGT - Wangaratta Arp, Australia
Distance from station: NE 241km
Updated: 25/06/2017 18:00
Overcast
Overcast
 Wind from ESE
Wind: ESE 6 km/h
Temperature: 8°C
Dew Point: 7°C
Humidity: 93%
Barometer: 1018 hPa
Clouds: Overcast
Visibility: 10 km
Cloud details: Overcast 518 m
2017/06/25 08:00 YWGT 250800Z AUTO 12003KT 9999 // OVC017 08/07 Q1018
YMAY - Albury Airport, Australia
Distance from station: NE 308km
Updated: 25/06/2017 18:00
Clear
Clear
 Wind from calm
Wind: Calm
Temperature: 6°C
Dew Point: 5°C
Humidity: 93%
Barometer: 1019 hPa
Clouds: Clear
Visibility: 10 km
2017/06/25 08:00 YMAY 250800Z AUTO 00000KT 9999 // NCD 06/05 Q1019
YMTG - Mount Gambier, Australia
Distance from station: W 326km
Updated: 25/06/2017 18:00
Light rain, Showers, Mostly cloudy
Light rain, Showers, Mostly cloudy
 Wind from WNW
Wind: WNW 11 km/h
Temperature: 10°C
Wind Chill: 8°C
Dew Point: 9°C
Humidity: 94%
Barometer: 1017 hPa
Summary: Light rain, Showers
Clouds: Mostly cloudy
Visibility: 10 km
Cloud details: Partly cloudy 549 m
Partly cloudy 792 m
Mostly cloudy 1006 m
2017/06/25 08:00 YMTG 250800Z AUTO 29006KT 9999 -SHRA SCT018 SCT026 BKN033 10/09 Q1017
 
YNAR - Narrandera, Australia
Distance from station: NNE 413km
Updated: 25/06/2017 18:00

 Wind from calm
Wind: Calm
Temperature: 11°C
Dew Point: 6°C
Humidity: 72%
Barometer: 1018 hPa
2017/06/25 08:00 YNAR 250800Z AUTO 00000KT //// // ////// 11/06 Q1018
YSWG - Wagga Wagga(Cv/M, Australia
Distance from station: NE 418km
Updated: 25/06/2017 18:00
Overcast
Overcast
 Wind from ESE
Wind: ESE 9 km/h
Temperature: 9°C
Wind Chill: 7°C
Dew Point: 3°C
Humidity: 66%
Barometer: 1018 hPa
Clouds: Overcast
Visibility: 10 km
Cloud details: Partly cloudy 2012 m
Overcast 2469 m
2017/06/25 08:00 YSWG 250800Z AUTO 11005KT 9999 // SCT066 OVC081 09/03 Q1018
YCOM - Cooma Snowy Mtns, Australia
Distance from station: ENE 441km
Updated: 25/06/2017 18:00
Partly cloudy
Partly cloudy
 Wind from W
Wind: W 15 km/h, Gust: 35 km/h
Temperature: 5°C
Wind Chill: 2°C
Dew Point: 0°C
Humidity: 70%
Barometer: 1014 hPa
Clouds: Partly cloudy
Visibility: 10 km
Cloud details: Partly cloudy 1433 m
2017/06/25 08:00 YCOM 250800Z AUTO 28008G19KT 9999 // SCT047 05/M00 Q1014
 
YGTH - Griffith Arpt, Australia
Distance from station: NNE 444km
Updated: 25/06/2017 18:00
Mostly cloudy
Mostly cloudy
 Wind from calm
Wind: Calm
Temperature: 11°C
Dew Point: 5°C
Humidity: 67%
Barometer: 1018 hPa
Clouds: Mostly cloudy
Visibility: 10 km
Cloud details: Mostly cloudy 1768 m
Mostly cloudy 2499 m
2017/06/25 08:00 YGTH 250800Z AUTO 00000KT 9999 // BKN058 BKN082 11/05 Q1018
YMLT - Launceston Airpo, Australia
Distance from station: SSE 451km
Updated: 25/06/2017 18:30
Clear
Clear
 Wind from WNW
Wind: WNW 17 km/h
Temperature: 8°C
Wind Chill: 5°C
Dew Point: 2°C
Humidity: 66%
Barometer: 1006 hPa
Clouds: Clear
Visibility: 10 km
2017/06/25 08:30 YMLT 250830Z AUTO 29009KT 9999 // NCD 08/02 Q1006 RF00.0/000.0
YMIA - Mildura Arpt, Australia
Distance from station: NNW 474km
Updated: 25/06/2017 18:00
Partly cloudy
Partly cloudy
 Wind from W
Wind: W 9 km/h
Temperature: 13°C
Dew Point: 4°C
Humidity: 55%
Barometer: 1019 hPa
Clouds: Partly cloudy
Visibility: 10 km
Cloud details: Partly cloudy 2073 m
2017/06/25 08:00 YMIA 250800Z AUTO 26005KT 9999 // SCT068 13/04 Q1019
 
YMER - Merimbula Arpt, Australia
Distance from station: ENE 494km
Updated: 25/06/2017 18:00
Clear
Clear
 Wind from NW
Wind: NW 7 km/h
Temperature: 8°C
Wind Chill: 7°C
Dew Point: 4°C
Humidity: 76%
Barometer: 1014 hPa
Clouds: Clear
Visibility: 10 km
2017/06/25 08:00 YMER 250800Z AUTO 32004KT 9999 // NCD 08/04 Q1014
YSCB - Canberra (civ/Mi, Australia
Distance from station: NE 518km
Updated: 25/06/2017 18:30
Clear
Clear
 Wind from N
Wind: N 19 km/h
Temperature: 6°C
Wind Chill: 3°C
Dew Point: 2°C
Humidity: 76%
Barometer: 1017 hPa
Clouds: Clear
Visibility: 10 km
2017/06/25 08:30 YSCB 250830Z AUTO 35010KT 9999 // NCD 06/02 Q1017
YMHB - Hobart/Tasmania, Australia
Distance from station: SSE 590km
Updated: 25/06/2017 18:30
Partly cloudy
Partly cloudy
 Wind from NW
Wind: NW 15 km/h
Temperature: 9°C
Wind Chill: 7°C
Dew Point: 2°C
Humidity: 62%
Barometer: 1005 hPa
Clouds: Partly cloudy
Visibility: 10 km
Cloud details: Few Clouds 1067 m
Partly cloudy 1463 m
2017/06/25 08:30 YMHB 250830Z 31008KT 9999 FEW035 SCT048 09/02 Q1005 RF00.0/000.0